Time;durP1;ratioP1;P1;durP2;ratioP2;P2;SDS_P1;SDS_P2;PMS_P1;PMS_P2;Temp;Humidity;BMP_temperature;BMP_pressure;BME280_temperature;BME280_humidity;BME280_pressure;Samples;Min_cycle;Max_cycle;Signal;HPM_P1;HPM_P2
2023/10/08 00:00:03;;;;;;;6.38;2.95;;;14.20;99.90;;;14.07;63.49;98082.75;5078276;28;20028;-39
2023/10/08 00:02:45;;;;;;;7.47;2.78;;;14.30;99.90;;;14.07;63.60;98070.34;5079868;28;20051;-40
2023/10/08 00:05:10;;;;;;;6.32;2.70;;;14.40;99.90;;;14.09;64.68;98067.63;5076471;28;20039;-38
2023/10/08 00:07:36;;;;;;;3.53;2.28;;;14.40;99.90;;;14.03;67.58;98052.81;5078033;28;20047;-39
2023/10/08 00:10:02;;;;;;;7.28;2.58;;;14.40;99.90;;;14.06;68.33;98067.75;5074134;28;20480;-39
2023/10/08 00:12:29;;;;;;;5.80;3.05;;;14.30;99.90;;;14.04;68.30;98070.44;5071464;28;20040;-40
2023/10/08 00:14:54;;;;;;;5.25;2.63;;;14.30;99.90;;;14.02;69.07;98068.81;5071368;28;20040;-38
2023/10/08 00:17:20;;;;;;;4.10;2.42;;;14.30;99.90;;;14.03;68.23;98073.16;5078152;28;20043;-39
2023/10/08 00:19:52;;;;;;;5.38;2.85;;;14.30;99.90;;;14.06;66.29;98073.03;5078893;28;20107;-40
2023/10/08 00:22:19;;;;;;;4.57;2.50;;;14.30;99.90;;;14.06;67.69;98079.22;5070236;28;20113;-39
2023/10/08 00:24:49;;;;;;;5.05;2.63;;;14.30;99.90;;;14.06;70.06;98081.00;5077378;28;20027;-38
2023/10/08 00:27:15;;;;;;;5.65;2.47;;;14.30;99.90;;;14.05;70.78;98074.84;5076974;28;20151;-38
2023/10/08 00:29:43;;;;;;;7.55;2.97;;;14.30;99.90;;;14.04;70.67;98075.75;5075288;28;20038;-38
2023/10/08 00:32:11;;;;;;;5.03;2.38;;;14.30;99.90;;;14.04;70.39;98069.59;5077408;28;20038;-38
2023/10/08 00:34:41;;;;;;;5.68;2.83;;;14.30;99.90;;;14.04;70.52;98062.50;5077581;28;20024;-39
2023/10/08 00:37:14;;;;;;;5.97;3.03;;;14.30;99.90;;;14.06;71.65;98063.28;5076929;28;20024;-38
2023/10/08 00:39:41;;;;;;;6.35;2.83;;;14.30;99.90;;;14.07;72.88;98058.88;5078138;28;20031;-38
2023/10/08 00:42:07;;;;;;;5.53;2.80;;;14.30;99.90;;;14.06;73.91;98059.78;5073493;28;20035;-39
2023/10/08 00:44:38;;;;;;;6.32;2.70;;;14.30;99.90;;;14.02;74.52;98045.78;5075596;28;20064;-39
2023/10/08 00:47:06;;;;;;;9.55;2.97;;;14.30;99.90;;;14.01;76.73;98040.53;5072605;28;20036;-39
2023/10/08 00:52:26;;;;;;;4.70;2.47;;;14.20;99.90;;;13.91;82.16;98035.63;5078543;28;20040;-38
2023/10/08 00:57:23;;;;;;;;;;;14.20;99.90;;;13.83;80.48;98032.41;5080214;28;20032;-38
2023/10/08 00:59:53;;;;;;;4.65;2.80;;;14.20;99.90;;;13.86;79.53;98042.03;5090110;28;19918;-39
2023/10/08 01:02:36;;;;;;;8.05;2.92;;;14.10;99.90;;;13.84;79.17;98033.28;5076549;28;20680;-39
2023/10/08 01:05:09;;;;;;;5.13;2.78;;;14.10;99.90;;;13.85;78.12;98043.78;5076232;28;20043;-38
2023/10/08 01:07:35;;;;;;;5.70;2.80;;;14.10;99.90;;;13.85;77.54;98037.63;5077708;28;20110;-39
2023/10/08 01:10:10;;;;;;;6.80;3.08;;;14.10;99.90;;;13.84;80.01;98027.97;5074202;28;20115;-39
2023/10/08 01:12:44;;;;;;;7.95;2.83;;;14.10;99.90;;;13.80;80.39;98035.19;5070952;28;20529;-39
2023/10/08 01:15:17;;;;;;;7.43;2.83;;;14.10;99.90;;;13.67;81.55;98012.72;5076609;28;20039;-39
2023/10/08 01:17:58;;;;;;;7.35;2.95;;;14.00;99.90;;;13.69;83.29;98030.31;5077925;28;20458;-39
2023/10/08 01:20:33;;;;;;;4.65;2.78;;;14.00;99.90;;;13.54;82.07;98015.00;5071030;28;20032;-38
2023/10/08 01:23:13;;;;;;;8.68;2.55;;;13.90;99.90;;;13.53;83.99;98024.75;5080868;28;20532;-39
2023/10/08 01:25:41;;;;;;;6.35;2.72;;;13.80;99.90;;;13.46;84.01;98022.38;5080069;28;20135;-39
2023/10/08 01:28:25;;;;;;;4.97;2.53;;;13.70;99.90;;;13.38;84.74;98024.47;5081191;28;20030;-39
2023/10/08 01:30:57;;;;;;;4.95;2.65;;;13.70;99.90;;;13.33;86.78;98019.34;5079753;28;20565;-40
2023/10/08 01:33:27;;;;;;;5.32;2.70;;;13.60;99.90;;;13.26;87.06;98023.09;5079747;28;20032;-39
2023/10/08 01:35:53;;;;;;;6.30;2.75;;;13.60;99.90;;;13.26;88.88;98034.59;5083602;28;20066;-40
2023/10/08 01:38:23;;;;;;;7.38;3.08;;;13.60;99.90;;;13.28;89.37;98038.03;5082246;28;20475;-40
2023/10/08 01:40:53;;;;;;;4.93;2.88;;;13.50;99.90;;;13.29;89.23;98038.88;5082145;28;20028;-41
2023/10/08 01:43:20;;;;;;;7.38;2.88;;;13.60;99.90;;;13.30;89.39;98035.34;5077708;28;20035;-38
2023/10/08 01:45:49;;;;;;;7.82;2.97;;;13.60;99.90;;;13.30;89.85;98036.19;5080155;28;20034;-38
2023/10/08 01:48:28;;;;;;;5.47;2.78;;;13.60;99.90;;;13.31;87.96;98032.63;5077470;28;20027;-39
2023/10/08 01:51:03;;;;;;;7.18;2.80;;;13.60;99.90;;;13.31;87.09;98031.78;5077333;28;20035;-38
2023/10/08 01:53:31;;;;;;;5.80;2.53;;;13.60;99.90;;;13.30;86.14;98036.19;5080422;28;20294;-39
2023/10/08 01:55:58;;;;;;;7.05;3.05;;;13.60;99.90;;;13.28;87.73;98037.16;5076815;28;20594;-39
2023/10/08 01:58:23;;;;;;;7.00;2.70;;;13.60;99.90;;;13.26;86.41;98036.34;5079103;28;20035;-38
2023/10/08 02:00:52;;;;;;;6.78;2.75;;;13.50;99.90;;;13.21;86.16;98038.31;5079578;28;20043;-40
2023/10/08 02:03:18;;;;;;;6.72;2.42;;;13.50;99.90;;;13.15;85.76;98035.00;5079873;28;20025;-39
2023/10/08 02:05:46;;;;;;;8.55;2.65;;;13.40;99.90;;;13.10;84.63;98036.94;5077739;28;20093;-39
2023/10/08 02:08:13;;;;;;;6.30;2.67;;;13.40;99.90;;;13.07;83.55;98038.84;5075955;28;20097;-39
2023/10/08 02:10:40;;;;;;;5.53;2.67;;;13.30;99.90;;;13.02;82.50;98036.34;5062166;28;20036;-39
2023/10/08 02:13:08;;;;;;;5.68;2.83;;;13.30;99.90;;;13.00;82.95;98038.19;5075355;28;20476;-38
2023/10/08 02:15:41;;;;;;;6.50;2.80;;;13.30;99.90;;;12.92;83.78;98034.94;5073172;28;20028;-38
2023/10/08 02:18:07;;;;;;;6.78;2.78;;;13.30;99.90;;;12.95;82.78;98048.06;5076652;28;20401;-40
2023/10/08 02:20:32;;;;;;;5.72;2.30;;;13.30;99.90;;;12.98;79.16;98043.53;5078355;28;20028;-39
2023/10/08 02:22:59;;;;;;;6.38;2.47;;;13.20;99.90;;;13.02;78.86;98041.63;5073030;28;20035;-38
2023/10/08 02:25:26;;;;;;;7.57;2.90;;;13.30;99.90;;;12.86;77.28;98019.28;5077829;28;20034;-40
2023/10/08 02:27:52;;;;;;;7.57;2.85;;;13.30;99.90;;;13.02;76.68;98041.63;5075904;28;20495;-38
2023/10/08 02:30:17;;;;;;;7.10;2.70;;;13.30;99.90;;;12.99;78.47;98042.63;5075361;28;20151;-38
2023/10/08 02:32:44;;;;;;;5.88;2.78;;;13.30;99.90;;;12.96;80.02;98042.72;5078230;28;20032;-38
2023/10/08 02:35:13;;;;;;;8.02;2.55;;;13.20;99.90;;;12.92;81.16;98046.41;5078361;28;20066;-39
2023/10/08 02:37:40;;;;;;;7.38;2.78;;;13.20;99.90;;;12.88;82.01;98044.78;5075424;28;20388;-39
2023/10/08 02:40:16;;;;;;;6.35;3.15;;;13.20;99.90;;;12.79;82.33;98040.69;5075057;28;20352;-38
2023/10/08 02:42:43;;;;;;;5.70;2.78;;;13.10;99.90;;;12.80;82.48;98047.72;5078256;28;20027;-39
2023/10/08 02:45:13;;;;;;;5.43;2.67;;;13.10;99.90;;;12.81;80.40;98048.56;5076726;28;20032;-39
2023/10/08 02:47:44;;;;;;;7.03;2.75;;;13.10;99.90;;;12.80;79.48;98050.34;5076903;28;20028;-39
2023/10/08 02:50:11;;;;;;;6.25;2.70;;;13.10;99.90;;;12.78;77.94;98044.25;5078078;28;20041;-39
2023/10/08 02:52:36;;;;;;;4.82;2.70;;;13.10;99.90;;;12.78;79.94;98046.91;5079011;28;20407;-38
2023/10/08 02:55:03;;;;;;;7.03;3.05;;;13.10;99.90;;;12.79;78.21;98051.28;5074875;28;20496;-38
2023/10/08 02:57:30;;;;;;;4.97;2.58;;;13.10;99.90;;;12.79;79.84;98043.34;5075776;28;20299;-38
2023/10/08 02:59:55;;;;;;;6.82;2.53;;;13.10;99.90;;;12.78;79.41;98044.25;5076630;28;20498;-38
2023/10/08 03:02:21;;;;;;;7.20;2.80;;;13.10;99.90;;;12.77;81.21;98045.16;5074104;28;20032;-38
2023/10/08 03:04:51;;;;;;;7.15;2.38;;;13.10;99.90;;;12.76;79.92;98042.59;5077133;28;20039;-41
2023/10/08 03:07:32;;;;;;;5.63;2.80;;;13.10;99.90;;;12.75;82.09;98038.22;5074064;28;20028;-38
2023/10/08 03:10:17;;;;;;;6.68;2.72;;;13.00;99.90;;;12.74;82.14;98044.41;5073463;28;20104;-40
2023/10/08 03:12:46;;;;;;;7.43;3.22;;;13.00;99.90;;;12.75;82.17;98040.84;5077474;28;20034;-39
2023/10/08 03:15:27;;;;;;;4.85;2.85;;;13.00;99.90;;;12.75;82.93;98033.78;5071129;28;20034;-38
2023/10/08 03:17:54;;;;;;;5.72;2.40;;;13.00;99.90;;;12.74;83.58;98023.22;5072032;28;20586;-40
2023/10/08 03:20:29;;;;;;;7.65;2.85;;;13.00;99.90;;;12.73;81.26;98026.81;5069558;28;20032;-38
2023/10/08 03:22:59;;;;;;;9.52;2.80;;;13.00;99.90;;;12.77;79.48;98026.63;5075471;28;20156;-39
2023/10/08 03:25:26;;;;;;;6.13;2.70;;;13.10;99.90;;;12.78;78.89;98020.44;5077249;28;20161;-40
2023/10/08 03:27:54;;;;;;;7.75;2.65;;;13.10;99.90;;;12.76;78.22;98009.03;5073883;28;20036;-39
2023/10/08 03:30:20;;;;;;;5.50;2.60;;;13.10;99.90;;;12.80;78.01;98013.28;5072914;28;20028;-39
2023/10/08 03:32:50;;;;;;;7.18;2.60;;;13.20;99.90;;;12.88;79.03;98014.81;5075414;28;20035;-41
2023/10/08 03:35:23;;;;;;;6.07;2.30;;;13.20;99.90;;;12.92;76.96;98024.34;5077976;28;20139;-38
2023/10/08 03:37:50;;;;;;;4.53;2.50;;;13.20;99.90;;;12.96;77.86;98036.59;5075819;28;20468;-38
2023/10/08 03:40:25;;;;;;;9.80;2.70;;;13.20;99.90;;;12.96;78.06;98033.94;5077410;28;20665;-39
2023/10/08 03:42:55;;;;;;;4.72;2.30;;;13.20;99.90;;;12.95;81.00;98043.63;5072529;28;20040;-40
2023/10/08 03:48:08;;;;;;;4.68;2.10;;;13.20;99.90;;;12.89;81.82;98045.66;5068036;28;20047;-39
2023/10/08 03:50:41;;;;;;;5.78;2.75;;;13.20;99.90;;;12.86;82.43;98046.63;5074805;28;20046;-38
2023/10/08 03:53:14;;;;;;;7.95;2.50;;;13.10;99.90;;;12.80;81.37;98038.91;5075879;28;20038;-39
2023/10/08 03:55:42;;;;;;;;;;;13.10;99.90;;;12.76;80.85;98032.88;5076910;28;20514;-39
2023/10/08 03:58:27;;;;;;;4.80;2.50;;;13.10;99.90;;;12.82;81.27;98047.66;5077661;28;20283;-38
2023/10/08 04:01:08;;;;;;;5.00;2.15;;;13.10;99.90;;;12.82;79.84;98050.31;5074234;28;20038;-41
2023/10/08 04:06:16;;;;;;;5.72;2.60;;;13.10;99.90;;;12.79;81.96;98047.75;5076955;28;20097;-39
2023/10/08 04:08:58;;;;;;;7.13;2.60;;;13.10;99.90;;;12.80;81.15;98049.50;5076020;28;20483;-40
2023/10/08 04:11:36;;;;;;;6.88;3.03;;;13.10;99.90;;;12.80;81.40;98053.00;5073035;28;20044;-38
2023/10/08 04:14:04;;;;;;;6.80;2.53;;;13.10;99.90;;;12.73;82.78;98035.59;5071853;28;20050;-40
2023/10/08 04:16:37;;;;;;;6.15;2.35;;;13.00;99.90;;;12.74;84.65;98040.00;5070894;28;20032;-39
2023/10/08 04:19:07;;;;;;;8.10;2.60;;;13.00;99.90;;;12.70;85.83;98043.66;5076840;28;20028;-39
2023/10/08 04:21:33;;;;;;;6.03;2.55;;;13.00;99.90;;;12.62;86.12;98031.63;5078259;28;20107;-38
2023/10/08 04:24:03;;;;;;;5.45;2.60;;;13.00;99.90;;;12.67;85.85;98030.53;5074592;28;20074;-38
2023/10/08 04:26:31;;;;;;;8.00;2.80;;;12.90;99.90;;;12.69;85.91;98027.84;5076657;28;20170;-38
2023/10/08 04:28:58;;;;;;;9.88;2.42;;;13.00;99.90;;;12.65;84.69;98016.50;5069396;28;20035;-39
2023/10/08 04:31:43;;;;;;;7.05;2.80;;;13.00;99.90;;;12.62;83.47;97998.09;5071301;28;20111;-39
2023/10/08 04:34:15;;;;;;;6.75;2.28;;;13.00;99.90;;;12.77;82.02;98023.13;5069832;28;20032;-39
2023/10/08 04:36:54;;;;;;;6.30;2.60;;;13.10;99.90;;;12.80;82.50;98013.28;5075415;28;20081;-40
2023/10/08 04:39:31;;;;;;;4.93;2.30;;;13.10;99.90;;;12.80;83.57;98008.00;5077465;28;20028;-40
2023/10/08 04:42:12;;;;;;;7.13;2.80;;;13.10;99.90;;;12.79;83.16;98008.94;5074835;28;20029;-41
2023/10/08 04:44:40;;;;;;;6.43;2.67;;;13.10;99.90;;;12.80;83.12;98021.25;5075082;28;20044;-39
2023/10/08 04:47:08;;;;;;;5.63;2.30;;;13.10;99.90;;;12.86;81.98;98019.28;5077993;28;20067;-38
2023/10/08 04:49:37;;;;;;;7.53;2.95;;;13.10;99.90;;;12.93;80.61;98018.16;5077174;28;20035;-38
2023/10/08 04:52:18;;;;;;;7.85;2.67;;;13.20;99.90;;;12.95;83.52;98030.41;5076153;28;20093;-39
2023/10/08 04:54:56;;;;;;;5.88;2.35;;;13.20;99.90;;;12.98;82.80;98037.38;5075550;28;20039;-38
2023/10/08 04:57:22;;;;;;;6.88;2.65;;;13.30;99.90;;;12.97;84.39;98038.28;5076392;28;20024;-39
2023/10/08 04:59:50;;;;;;;4.55;2.17;;;13.30;99.90;;;12.94;85.85;98030.47;5077047;28;20066;-41
2023/10/08 05:02:19;;;;;;;5.53;2.17;;;13.20;99.90;;;12.89;86.85;98025.34;5078275;28;20051;-39
2023/10/08 05:05:06;;;;;;;8.05;2.30;;;13.20;99.90;;;12.84;87.01;98029.06;5077426;28;20518;-39
2023/10/08 05:08:21;;;;;;;6.30;2.30;;;13.20;99.90;;;12.79;86.04;98035.41;5078373;28;20032;-38
2023/10/08 05:13:15;;;;;;;5.50;2.35;;;13.10;99.90;;;12.79;85.77;98031.88;5074026;28;20020;-41
2023/10/08 05:15:49;;;;;;;5.68;2.60;;;13.10;99.90;;;12.77;84.38;98031.06;5075683;28;20488;-39
2023/10/08 05:23:42;;;;;;;5.15;2.28;;;13.10;99.90;;;12.78;85.48;98043.41;5077430;28;20115;-38
2023/10/08 05:28:46;;;;;;;4.40;2.25;;;13.00;99.90;;;12.70;87.63;98043.66;5078096;28;20023;-39
2023/10/08 05:41:55;;;;;;;7.78;2.30;;;12.80;99.90;;;12.39;90.71;98020.91;5070795;28;20036;-41
2023/10/08 05:59:52;;;;;;;7.70;2.33;;;13.10;99.90;;;12.96;81.70;98063.06;5075330;28;20119;-39
2023/10/08 06:02:28;;;;;;;6.53;2.25;;;13.20;99.90;;;13.04;81.34;98057.47;5075934;28;20036;-39
2023/10/08 06:13:44;;;;;;;4.78;2.53;;;13.50;99.90;;;13.38;78.63;98072.16;5072967;28;20040;-40
2023/10/08 06:16:30;;;;;;;4.95;2.05;;;13.60;99.90;;;13.44;78.34;98064.84;5062877;28;20056;-39
2023/10/08 06:18:56;;;;;;;6.30;2.35;;;13.70;99.90;;;13.49;78.63;98062.00;5073836;28;20027;-39
2023/10/08 06:21:22;;;;;;;4.60;2.10;;;13.70;99.90;;;13.50;79.42;98056.66;5073251;28;20028;-39
2023/10/08 06:23:48;;;;;;;6.15;2.38;;;13.70;99.90;;;13.51;82.10;98066.34;5075854;28;20032;-40
2023/10/08 06:26:14;;;;;;;8.80;3.10;;;13.80;99.90;;;13.50;83.00;98061.94;5078951;28;20040;-39
2023/10/08 06:28:42;;;;;;;5.22;2.65;;;13.80;99.90;;;13.48;85.30;98055.84;5064596;28;20406;-39
2023/10/08 06:31:11;;;;;;;6.55;2.72;;;13.70;99.90;;;13.46;87.30;98049.75;5066948;28;20028;-39
2023/10/08 06:33:41;;;;;;;7.47;2.42;;;13.70;99.90;;;13.34;90.22;98043.13;5073197;28;20038;-39
2023/10/08 06:38:33;;;;;;;6.65;2.40;;;13.70;99.90;;;13.39;94.42;98057.97;5072639;28;20033;-40
2023/10/08 06:41:00;;;;;;;5.05;2.17;;;13.60;99.90;;;13.38;96.02;98059.75;5069679;28;20574;-39
2023/10/08 06:43:27;;;;;;;4.70;2.28;;;13.70;99.90;;;13.37;95.76;98058.06;5076176;28;20070;-41
2023/10/08 06:45:57;;;;;;;6.40;2.17;;;13.60;99.90;;;13.36;95.85;98064.25;5074133;28;20151;-39
2023/10/08 06:48:24;;;;;;;4.90;2.60;;;13.60;99.90;;;13.36;95.18;98066.91;5073965;28;20028;-39
2023/10/08 06:50:56;;;;;;;7.65;2.58;;;13.60;99.90;;;13.39;94.71;98058.84;5073280;28;20024;-40
2023/10/08 06:53:22;;;;;;;5.55;2.53;;;13.70;99.90;;;13.44;94.45;98067.50;5078286;28;20028;-39
2023/10/08 06:55:56;;;;;;;5.57;2.35;;;13.70;99.90;;;13.48;93.41;98057.66;5071107;28;20507;-39
2023/10/08 06:58:24;;;;;;;5.95;2.38;;;13.80;99.90;;;13.56;93.49;98052.91;5079906;28;20440;-39
2023/10/08 07:00:51;;;;;;;4.28;2.40;;;13.80;99.90;;;13.63;94.54;98053.53;5071192;28;20369;-40
2023/10/08 07:03:17;;;;;;;4.20;2.20;;;13.90;99.90;;;13.66;96.06;98048.97;5071532;28;20036;-41
2023/10/08 07:05:59;;;;;;;4.45;2.42;;;13.90;99.90;;;13.78;96.67;98054.72;5074854;28;20119;-41
2023/10/08 07:08:35;;;;;;;5.85;2.40;;;14.00;99.90;;;13.88;95.68;98066.69;5077980;28;20028;-41
2023/10/08 07:11:06;;;;;;;5.90;2.55;;;14.10;99.90;;;13.96;92.42;98066.38;5072831;28;20315;-40
2023/10/08 07:13:33;;;;;;;8.40;2.40;;;14.30;99.90;;;14.12;91.84;98080.75;5073655;28;20052;-40
2023/10/08 07:16:02;;;;;;;6.38;2.20;;;14.40;99.90;;;14.26;91.05;98082.84;5075804;28;20058;-40
2023/10/08 07:18:33;;;;;;;5.00;2.35;;;14.50;99.90;;;14.41;87.90;98084.88;5073931;28;20302;-40
2023/10/08 07:21:01;;;;;;;7.00;2.50;;;14.70;99.90;;;14.64;84.83;98091.03;5072365;28;20034;-40
2023/10/08 07:23:34;;;;;;;5.28;2.10;;;14.90;99.90;;;14.94;82.23;98086.19;5076911;28;20110;-40
2023/10/08 07:26:13;;;;;;;5.53;1.85;;;15.20;99.90;;;15.35;81.32;98095.94;5079058;28;20070;-40
2023/10/08 07:28:42;;;;;;;6.47;2.50;;;15.60;99.90;;;15.73;80.05;98103.94;5078653;28;20044;-39
2023/10/08 07:31:22;;;;;;;6.95;2.65;;;16.00;99.90;;;16.08;79.22;98093.44;5076515;28;20067;-40
2023/10/08 07:33:56;;;;;;;7.45;2.75;;;16.30;99.90;;;16.32;74.70;98115.34;5073259;28;20718;-39
2023/10/08 07:36:30;;;;;;;8.18;2.90;;;16.60;99.90;;;16.53;71.95;98113.44;5076634;28;20399;-39
2023/10/08 07:38:57;;;;;;;4.47;2.25;;;16.80;99.90;;;16.66;71.47;98105.69;5095156;28;20035;-39
2023/10/08 07:41:23;;;;;;;8.07;2.58;;;16.90;99.90;;;16.69;68.27;98102.84;5075773;28;20476;-40
2023/10/08 07:43:55;;;;;;;6.18;2.47;;;17.00;99.90;;;16.72;66.61;98106.22;5071782;28;20043;-40
2023/10/08 07:46:28;;;;;;;5.28;2.50;;;17.00;99.90;;;16.78;67.70;98097.09;5075717;28;20095;-40
2023/10/08 07:48:54;;;;;;;;;;;17.00;99.90;;;16.83;67.83;98097.72;5076332;28;20039;-39
2023/10/08 07:51:23;;;;;;;7.45;2.60;;;17.00;99.90;;;16.88;70.16;98100.16;5077417;28;19934;-42
2023/10/08 07:53:55;;;;;;;5.15;2.22;;;17.10;99.90;;;16.95;70.30;98101.56;5080899;28;20448;-40
2023/10/08 07:56:23;;;;;;;4.32;2.25;;;17.10;99.90;;;17.00;73.11;98091.53;5076341;28;20507;-40
2023/10/08 07:58:50;;;;;;;11.60;2.55;;;17.20;99.90;;;17.00;71.69;98078.22;5080150;28;20035;-40
2023/10/08 08:01:16;;;;;;;9.27;2.83;;;17.20;99.90;;;17.05;69.58;98083.28;5079462;28;20032;-40
2023/10/08 08:03:42;;;;;;;5.47;2.45;;;17.30;99.90;;;17.17;69.73;98078.19;5077444;28;20427;-39
2023/10/08 08:06:09;;;;;;;5.72;2.72;;;17.40;99.90;;;17.24;71.29;98080.53;5073011;28;20043;-39
2023/10/08 08:08:36;;;;;;;8.23;2.80;;;17.40;99.90;;;17.27;69.80;98081.22;5079407;28;20063;-40
2023/10/08 08:11:06;;;;;;;4.35;2.30;;;17.50;99.90;;;17.24;71.01;98078.72;5078115;28;20063;-40
2023/10/08 08:13:34;;;;;;;6.00;2.70;;;17.40;99.90;;;17.10;75.98;98083.91;5081241;28;20846;-41
2023/10/08 08:16:09;;;;;;;4.72;2.40;;;17.30;99.90;;;17.01;75.61;98092.41;5074652;28;20031;-39
2023/10/08 08:18:37;;;;;;;5.93;2.53;;;17.20;99.90;;;16.83;75.24;98105.72;5064992;28;20465;-40
2023/10/08 08:21:02;;;;;;;5.40;2.38;;;17.10;99.90;;;16.80;76.24;98129.84;5059282;28;20474;-40
2023/10/08 08:23:30;;;;;;;7.32;3.25;;;17.00;99.90;;;16.70;73.19;98144.53;5051812;28;20032;-39
2023/10/08 08:26:06;;;;;;;7.25;3.05;;;16.90;99.90;;;16.56;74.29;98155.88;5065537;28;20054;-42
2023/10/08 08:28:33;;;;;;;7.25;3.55;;;16.80;99.90;;;16.45;75.53;98158.22;5080814;28;20035;-41
2023/10/08 08:31:13;;;;;;;6.40;2.80;;;16.70;99.90;;;16.37;77.08;98155.94;5080708;28;20128;-41
2023/10/08 08:33:52;;;;;;;7.22;3.08;;;16.60;99.90;;;16.40;78.29;98150.44;5083092;28;20387;-40
2023/10/08 08:36:20;;;;;;;6.13;2.92;;;16.60;99.90;;;16.54;79.59;98155.94;5080709;28;20404;-40
2023/10/08 08:38:47;;;;;;;5.28;2.70;;;16.70;99.90;;;16.63;80.08;98161.78;5080125;28;20016;-40
2023/10/08 08:41:17;;;;;;;9.70;3.40;;;16.80;99.90;;;16.73;78.23;98166.56;5081715;28;20051;-40
2023/10/08 08:43:46;;;;;;;5.45;2.60;;;16.90;99.90;;;16.87;77.19;98170.34;5080665;28;20028;-39
2023/10/08 08:46:12;;;;;;;7.80;2.90;;;17.00;99.90;;;17.07;76.79;98178.22;5081351;28;20566;-39
2023/10/08 08:48:41;;;;;;;9.77;2.95;;;17.20;99.90;;;17.28;75.95;98178.03;5079501;28;20050;-40
2023/10/08 08:51:09;;;;;;;5.00;2.60;;;17.40;99.90;;;17.57;74.51;98184.53;5082384;28;20043;-41
2023/10/08 08:53:38;;;;;;;4.80;2.55;;;17.70;99.90;;;17.79;70.38;98170.06;5082462;28;20109;-39
2023/10/08 08:56:09;;;;;;;8.57;2.85;;;18.00;99.90;;;18.07;69.05;98183.66;5094720;28;20081;-39
2023/10/08 08:58:36;;;;;;;9.20;3.25;;;18.30;99.90;;;18.25;65.95;98186.22;5083383;28;20020;-39
2023/10/08 09:01:03;;;;;;;6.60;3.00;;;18.50;99.90;;;18.33;65.76;98178.66;5080160;28;20506;-39
2023/10/08 09:03:32;;;;;;;7.70;3.05;;;18.50;99.90;;;18.30;61.38;98179.72;5067866;28;20029;-40
2023/10/08 09:05:59;;;;;;;5.75;2.50;;;18.50;99.90;;;18.36;63.91;98183.84;5081299;28;20767;-40
2023/10/08 09:08:33;;;;;;;4.47;2.45;;;18.50;99.90;;;18.46;62.16;98176.16;5080207;28;20114;-40
2023/10/08 09:11:04;;;;;;;4.75;2.17;;;18.60;99.90;;;18.57;60.45;98168.41;5075493;28;20091;-39
2023/10/08 09:13:32;;;;;;;4.45;2.30;;;18.80;99.90;;;18.79;59.16;98169.81;5081898;28;20059;-39
2023/10/08 09:16:13;;;;;;;4.20;2.35;;;18.90;99.50;;;18.92;57.04;98151.31;5079654;28;20020;-39
2023/10/08 09:18:43;;;;;;;5.03;2.60;;;19.20;99.10;;;19.29;56.19;98162.47;5079667;28;20035;-41
2023/10/08 09:21:22;;;;;;;5.65;2.70;;;19.40;98.50;;;19.60;55.33;98177.53;5079460;28;20038;-40
2023/10/08 09:23:54;;;;;;;9.85;3.22;;;19.80;98.30;;;19.91;55.11;98170.31;5078379;28;20064;-41
2023/10/08 09:26:25;;;;;;;6.50;3.25;;;20.10;98.10;;;20.12;54.54;98168.09;5078799;28;20075;-39
2023/10/08 09:28:51;;;;;;;6.03;2.80;;;20.30;97.90;;;20.20;56.05;98163.09;5080061;28;20380;-39
2023/10/08 09:31:17;;;;;;;5.38;2.67;;;20.40;98.20;;;20.29;55.23;98165.19;5078337;28;20032;-40
2023/10/08 09:33:53;;;;;;;5.18;2.53;;;20.50;98.20;;;20.34;55.02;98160.41;5081150;28;20033;-40
2023/10/08 09:36:20;;;;;;;4.38;2.80;;;20.50;97.90;;;20.41;55.09;98164.41;5079923;28;20411;-41
2023/10/08 09:38:48;;;;;;;11.65;3.25;;;20.60;98.10;;;20.37;53.85;98157.53;5078073;28;20554;-39
2023/10/08 09:41:14;;;;;;;7.30;3.45;;;20.60;97.30;;;20.56;55.13;98167.88;5078561;28;20480;-39
2023/10/08 09:43:41;;;;;;;5.85;3.03;;;20.70;98.20;;;20.64;52.62;98174.59;5081358;28;20082;-41
2023/10/08 09:46:19;;;;;;;8.70;3.15;;;20.80;97.60;;;20.70;52.76;98167.00;5082233;28;20116;-40
2023/10/08 09:48:59;;;;;;;6.15;3.10;;;20.90;97.10;;;20.84;52.73;98160.75;5082682;28;20031;-41
2023/10/08 09:51:28;;;;;;;6.93;2.97;;;21.00;97.10;;;20.95;50.75;98166.25;5078839;28;20032;-40
2023/10/08 09:54:33;;;;;;;6.75;2.95;;;21.10;96.40;;;21.01;51.25;98162.28;5078551;28;20020;-40
2023/10/08 09:57:03;;;;;;;7.95;3.00;;;21.20;96.20;;;21.06;52.30;98151.25;5080650;28;20104;-39
2023/10/08 09:59:29;;;;;;;10.52;3.30;;;21.30;96.30;;;21.18;51.71;98163.84;5083485;28;20028;-41
2023/10/08 10:01:59;;;;;;;7.70;3.30;;;21.40;96.60;;;21.27;52.15;98157.00;5079997;28;20032;-40
2023/10/08 10:04:31;;;;;;;10.57;3.30;;;21.40;96.60;;;21.30;51.42;98167.50;5081119;28;20249;-40
2023/10/08 10:06:57;;;;;;;4.28;2.88;;;21.50;96.50;;;21.27;51.07;98151.63;5081285;28;20594;-39
2023/10/08 10:09:25;;;;;;;4.55;2.60;;;21.50;96.40;;;21.45;50.94;98166.47;5081460;28;20040;-39
2023/10/08 10:11:54;;;;;;;7.05;3.08;;;21.60;96.10;;;21.53;50.38;98169.50;5081167;28;20476;-40
2023/10/08 10:14:23;;;;;;;7.30;3.15;;;21.70;95.90;;;21.57;50.09;98167.47;5080951;28;20229;-41
2023/10/08 10:17:09;;;;;;;6.55;3.03;;;21.80;95.70;;;21.59;48.47;98183.44;5080153;28;20115;-42
2023/10/08 10:19:36;;;;;;;5.13;2.72;;;21.80;94.50;;;21.67;49.75;98183.78;5079741;28;20028;-40
2023/10/08 10:22:03;;;;;;;5.32;2.70;;;21.80;95.30;;;21.76;49.38;98188.50;5078717;28;20028;-39
2023/10/08 10:24:35;;;;;;;7.13;2.97;;;21.90;95.10;;;21.77;49.30;98192.03;5080581;28;20050;-42
2023/10/08 10:27:17;;;;;;;5.45;3.38;;;21.90;94.90;;;21.69;51.47;98176.47;5081686;28;20024;-42
2023/10/08 10:29:44;;;;;;;4.70;2.85;;;22.00;95.80;;;21.69;50.87;98179.16;5082517;28;20028;-40
2023/10/08 10:32:14;;;;;;;8.05;3.17;;;21.90;95.80;;;21.64;51.36;98186.66;5081188;28;20040;-40
2023/10/08 10:34:42;;;;;;;6.03;2.78;;;21.90;95.90;;;21.63;51.42;98190.31;5082314;28;20032;-39
2023/10/08 10:37:20;;;;;;;8.30;3.10;;;21.80;96.00;;;21.57;51.45;98180.88;5078665;28;20081;-42
2023/10/08 10:39:55;;;;;;;6.47;2.65;;;21.70;96.00;;;21.47;52.88;98188.69;5080519;28;20020;-41
2023/10/08 10:42:22;;;;;;;7.38;3.17;;;21.60;96.60;;;21.34;53.58;98183.28;5081159;28;20119;-41
2023/10/08 10:44:49;;;;;;;7.75;3.10;;;21.50;97.00;;;21.25;54.48;98186.59;5079333;28;20059;-39
2023/10/08 10:49:52;;;;;;;5.82;2.97;;;21.30;97.10;;;21.11;53.38;98190.22;5080432;28;20408;-39
2023/10/08 10:52:31;;;;;;;4.45;2.35;;;21.30;96.90;;;21.02;53.94;98190.84;5078619;28;20072;-40
2023/10/08 10:57:43;;;;;;;5.28;3.05;;;21.10;97.50;;;20.85;56.27;98180.38;5082837;28;20488;-38
2023/10/08 11:03:04;;;;;;;6.68;2.58;;;20.90;97.70;;;20.77;55.09;98176.38;5078520;28;20077;-41
2023/10/08 11:05:37;;;;;;;6.95;3.38;;;20.90;97.50;;;20.78;54.30;98179.91;5080286;28;20111;-40
2023/10/08 11:08:06;;;;;;;6.38;3.38;;;20.90;97.10;;;20.74;54.97;98175.72;5079859;28;20073;-38
2023/10/08 11:10:33;;;;;;;5.70;3.03;;;20.80;97.30;;;20.73;54.76;98177.53;5079284;28;20036;-39
2023/10/08 11:13:01;;;;;;;8.88;3.35;;;20.80;97.40;;;20.67;54.66;98175.25;5079267;28;20032;-40
2023/10/08 11:15:40;;;;;;;8.38;3.38;;;20.70;97.40;;;20.48;55.10;98153.28;5080954;28;20075;-39
2023/10/08 11:18:33;;;;;;;8.85;3.00;;;20.60;97.40;;;20.40;55.86;98162.69;5077136;28;20036;-38
2023/10/08 11:21:16;;;;;;;6.35;3.38;;;20.50;97.60;;;20.30;55.92;98160.72;5081002;28;20438;-38
2023/10/08 11:23:52;;;;;;;6.55;3.20;;;20.40;97.80;;;20.23;57.60;98165.59;5081127;28;20051;-39
2023/10/08 11:26:19;;;;;;;6.22;2.90;;;20.30;98.20;;;20.15;59.09;98173.25;5078512;28;20024;-38
2023/10/08 11:28:47;;;;;;;7.22;2.70;;;20.20;98.70;;;19.97;59.82;98154.72;5081456;28;20036;-39
2023/10/08 11:31:19;;;;;;;5.88;3.00;;;20.10;98.90;;;19.92;59.72;98164.88;5074337;28;20028;-39
2023/10/08 11:34:28;;;;;;;6.95;3.33;;;20.00;99.00;;;19.82;59.83;98153.00;5076660;28;20088;-39
2023/10/08 11:36:49;;;;;;;6.05;3.20;;;20.00;99.30;;;19.90;59.41;98153.41;5077325;28;20070;-39
2023/10/08 11:39:30;;;;;;;7.00;3.78;;;20.00;99.00;;;19.98;59.25;98161.78;5077962;28;20357;-39
2023/10/08 11:41:57;;;;;;;6.10;3.00;;;20.10;98.70;;;20.05;59.52;98140.84;5079197;28;20032;-39